createdAt,value
2019-03-24T00:00:19.977Z,99099.23
2019-03-24T00:02:48.586Z,99097.78
2019-03-24T00:05:16.875Z,99097.12
2019-03-24T00:07:45.205Z,99094.34
2019-03-24T00:10:13.912Z,99095.98
2019-03-24T00:12:42.240Z,99085.80
2019-03-24T00:15:10.956Z,99093.77
2019-03-24T00:17:39.326Z,99079.03
2019-03-24T00:20:10.107Z,99092.42
2019-03-24T00:22:38.118Z,99084.08
2019-03-24T00:25:08.286Z,99084.08
2019-03-24T00:27:36.594Z,99090.85
2019-03-24T00:30:07.299Z,99091.78
2019-03-24T00:32:35.609Z,99093.39
2019-03-24T00:35:05.876Z,99090.62
2019-03-24T00:37:34.189Z,99093.95
2019-03-24T00:40:02.882Z,99081.75
2019-03-24T00:42:31.198Z,99088.45
2019-03-24T00:44:59.507Z,99084.02
2019-03-24T00:47:27.845Z,99088.59
2019-03-24T00:49:56.222Z,99082.27
2019-03-24T00:52:24.553Z,99082.94
2019-03-24T00:54:53.178Z,99084.03
2019-03-24T00:57:21.551Z,99084.81
2019-03-24T00:59:49.880Z,99081.42
2019-03-24T01:02:18.215Z,99080.11
2019-03-24T01:04:46.543Z,99082.42
2019-03-24T01:07:15.299Z,99081.23
2019-03-24T01:09:43.639Z,99080.86
2019-03-24T01:12:12.220Z,99073.70
2019-03-24T01:14:40.634Z,99069.08
2019-03-24T01:17:08.938Z,99062.56
2019-03-24T01:19:37.615Z,99062.67
2019-03-24T01:22:06.025Z,99059.32
2019-03-24T01:24:34.334Z,99060.73
2019-03-24T01:27:02.658Z,99056.59
2019-03-24T01:29:30.960Z,99048.53
2019-03-24T01:31:59.350Z,99045.52
2019-03-24T01:34:27.662Z,99036.05
2019-03-24T01:36:55.978Z,99035.57
2019-03-24T01:39:24.356Z,99031.09
2019-03-24T01:41:52.681Z,99029.34
2019-03-24T01:44:21.318Z,99027.98
2019-03-24T01:46:49.639Z,99031.47
2019-03-24T01:49:17.965Z,99030.59
2019-03-24T01:51:46.278Z,99031.79
2019-03-24T01:54:14.602Z,99031.05
2019-03-24T01:56:43.024Z,99026.47
2019-03-24T01:59:11.464Z,99009.13
2019-03-24T02:01:39.766Z,99024.44
2019-03-24T02:04:08.073Z,99023.69
2019-03-24T02:06:38.567Z,99022.97
2019-03-24T02:09:08.047Z,99015.09
2019-03-24T02:11:36.369Z,99020.95
2019-03-24T02:14:04.917Z,99016.48
2019-03-24T02:16:33.236Z,99020.88
2019-03-24T02:19:01.551Z,99014.23
2019-03-24T02:21:29.855Z,99008.55
2019-03-24T02:23:58.510Z,99013.23
2019-03-24T02:26:26.813Z,99006.55
2019-03-24T02:28:55.212Z,99010.22
2019-03-24T02:31:23.581Z,99005.80
2019-03-24T02:33:52.239Z,99004.42
2019-03-24T02:36:20.542Z,99007.05
2019-03-24T02:38:48.869Z,98999.55
2019-03-24T02:41:17.480Z,99004.42
2019-03-24T02:43:45.803Z,98999.83
2019-03-24T02:46:24.283Z,99002.69
2019-03-24T02:48:44.157Z,99000.56
2019-03-24T02:51:12.575Z,99001.16
2019-03-24T02:53:40.842Z,98999.14
2019-03-24T02:56:09.619Z,99005.86
2019-03-24T02:58:37.933Z,99005.80
2019-03-24T03:01:06.325Z,99011.86
2019-03-24T03:03:34.629Z,99011.55
2019-03-24T03:06:03.138Z,99015.55
2019-03-24T03:08:31.462Z,99003.64
2019-03-24T03:10:59.770Z,99000.56
2019-03-24T03:13:28.103Z,98999.23
2019-03-24T03:15:56.405Z,99001.05
2019-03-24T03:18:24.726Z,99002.16
2019-03-24T03:20:53.101Z,98997.43
2019-03-24T03:23:21.526Z,98992.83
2019-03-24T03:25:49.831Z,98993.46
2019-03-24T03:28:18.138Z,98991.21
2019-03-24T03:30:46.463Z,98996.13
2019-03-24T03:33:15.146Z,98988.64
2019-03-24T03:35:43.580Z,98984.87
2019-03-24T03:38:11.926Z,98984.61
2019-03-24T03:40:40.276Z,98980.33
2019-03-24T03:43:08.834Z,98986.64
2019-03-24T03:45:39.220Z,98994.48
2019-03-24T03:48:07.191Z,99000.63
2019-03-24T03:50:35.568Z,99005.05
2019-03-24T03:53:04.244Z,99007.71
2019-03-24T03:55:32.615Z,99010.78
2019-03-24T03:58:00.956Z,99007.62
2019-03-24T04:00:34.277Z,99011.14
2019-03-24T04:03:03.137Z,99011.45
2019-03-24T04:05:31.783Z,99006.02
2019-03-24T04:08:01.395Z,99000.53
2019-03-24T04:10:29.723Z,98995.52
2019-03-24T04:12:58.040Z,98993.88
2019-03-24T04:15:26.429Z,98998.03
2019-03-24T04:17:54.819Z,98989.53
2019-03-24T04:20:23.132Z,98991.02
2019-03-24T04:22:51.577Z,98993.58
2019-03-24T04:25:19.895Z,99000.91
2019-03-24T04:27:48.222Z,99002.13
2019-03-24T04:30:17.010Z,99001.25
2019-03-24T04:32:45.325Z,98998.91
2019-03-24T04:35:13.999Z,99004.44
2019-03-24T04:37:42.312Z,99002.14
2019-03-24T04:40:10.786Z,98995.98
2019-03-24T04:42:39.115Z,98993.58
2019-03-24T04:45:07.892Z,98993.20
2019-03-24T04:47:36.220Z,98987.75
2019-03-24T04:50:06.764Z,98989.50
2019-03-24T04:52:35.066Z,98993.77
2019-03-24T04:55:03.741Z,98996.59
2019-03-24T04:57:32.050Z,98993.39
2019-03-24T05:00:00.488Z,98999.66
2019-03-24T05:02:28.829Z,98995.67
2019-03-24T05:04:57.205Z,99006.78
2019-03-24T05:07:25.798Z,99005.97
2019-03-24T05:09:54.579Z,99006.88
2019-03-24T05:12:22.874Z,99006.88
2019-03-24T05:14:51.181Z,99007.77
2019-03-24T05:17:27.097Z,99013.28
2019-03-24T05:19:49.632Z,99011.91
2019-03-24T05:22:17.960Z,99012.02
2019-03-24T05:24:47.271Z,99012.63
2019-03-24T05:27:15.792Z,99011.22
2019-03-24T05:29:44.099Z,99006.97
2019-03-24T05:32:12.406Z,99008.68
2019-03-24T05:34:40.738Z,99004.16
2019-03-24T05:37:09.118Z,99008.36
2019-03-24T05:39:37.757Z,99000.53
2019-03-24T05:42:06.143Z,98998.67
2019-03-24T05:44:34.466Z,98993.45
2019-03-24T05:47:02.774Z,98993.97
2019-03-24T05:49:31.093Z,98989.63
2019-03-24T05:51:59.411Z,98989.45
2019-03-24T05:54:27.748Z,98988.52
2019-03-24T05:56:56.332Z,98990.09
2019-03-24T05:59:24.645Z,98993.10
2019-03-24T06:01:52.972Z,98993.36
2019-03-24T06:04:21.682Z,98996.92
2019-03-24T06:06:50.011Z,98992.34
2019-03-24T06:09:18.314Z,98996.09
2019-03-24T06:11:46.641Z,98997.03
2019-03-24T06:14:15.306Z,99002.55
2019-03-24T06:16:43.622Z,98997.63
2019-03-24T06:19:11.970Z,98995.84
2019-03-24T06:21:40.281Z,98997.94
2019-03-24T06:24:08.625Z,98996.41
2019-03-24T06:26:36.931Z,98994.02
2019-03-24T06:29:05.231Z,98991.78
2019-03-24T06:31:33.554Z,98994.36
2019-03-24T06:34:01.933Z,98992.05
2019-03-24T06:36:30.541Z,98996.09
2019-03-24T06:38:58.850Z,98997.34
2019-03-24T06:41:27.171Z,99000.24
2019-03-24T06:43:55.479Z,98998.20
2019-03-24T06:46:23.871Z,98990.98
2019-03-24T06:48:52.244Z,98993.00
2019-03-24T06:51:20.586Z,98989.69
2019-03-24T06:53:48.892Z,98990.34
2019-03-24T06:56:17.205Z,98982.64
2019-03-24T06:58:45.534Z,98981.09
2019-03-24T07:01:13.839Z,98977.70
2019-03-24T07:03:42.160Z,98978.02
2019-03-24T07:06:10.481Z,98984.67
2019-03-24T07:08:38.815Z,98972.95
2019-03-24T07:11:12.368Z,98974.05
2019-03-24T07:13:37.187Z,98975.31
2019-03-24T07:16:05.883Z,98982.05
2019-03-24T07:18:34.203Z,98977.10
2019-03-24T07:21:02.527Z,98983.56
2019-03-24T07:23:30.833Z,98975.66
2019-03-24T07:26:00.248Z,98977.22
2019-03-24T07:28:28.632Z,98971.72
2019-03-24T07:30:57.336Z,98976.95
2019-03-24T07:33:25.660Z,98971.45
2019-03-24T07:35:54.379Z,98966.81
2019-03-24T07:38:23.056Z,98960.70
2019-03-24T07:40:51.431Z,98962.53
2019-03-24T07:43:19.762Z,98953.34
2019-03-24T07:45:48.067Z,98954.02
2019-03-24T07:48:19.336Z,98959.28
2019-03-24T07:50:47.134Z,98959.44
2019-03-24T07:53:15.463Z,98960.98
2019-03-24T07:55:43.913Z,98949.58
2019-03-24T07:58:12.239Z,98948.87
2019-03-24T08:00:40.629Z,98950.09
2019-03-24T08:03:09.037Z,98942.47
2019-03-24T08:05:37.386Z,98944.30
2019-03-24T08:08:05.695Z,98937.23
2019-03-24T08:10:34.023Z,98938.16
2019-03-24T08:13:02.405Z,98933.50
2019-03-24T08:15:30.731Z,98929.47
2019-03-24T08:17:59.200Z,98931.11
2019-03-24T08:20:27.616Z,98929.87
2019-03-24T08:22:55.995Z,98923.89
2019-03-24T08:25:24.369Z,98918.55
2019-03-24T08:27:52.766Z,98923.66
2019-03-24T08:30:32.399Z,98917.08
2019-03-24T08:33:00.806Z,98908.93
2019-03-24T08:35:29.193Z,98913.84
2019-03-24T08:37:57.498Z,98907.55
2019-03-24T08:40:26.208Z,98905.14
2019-03-24T08:42:54.592Z,98907.09
2019-03-24T08:45:30.312Z,98898.42
2019-03-24T08:47:59.460Z,98894.48
2019-03-24T08:50:28.064Z,98891.72
2019-03-24T08:52:56.741Z,98891.03
2019-03-24T08:55:25.155Z,98885.44
2019-03-24T08:57:53.525Z,98889.78
2019-03-24T09:00:30.180Z,98889.85
2019-03-24T09:02:52.304Z,98889.67
2019-03-24T09:05:20.617Z,98885.16
2019-03-24T09:07:48.958Z,98876.76
2019-03-24T09:10:17.328Z,98875.10
2019-03-24T09:12:45.654Z,98869.67
2019-03-24T09:15:14.403Z,98861.73
2019-03-24T09:17:42.824Z,98861.27
2019-03-24T09:20:11.389Z,98861.05
2019-03-24T09:22:39.717Z,98866.23
2019-03-24T09:25:09.570Z,98866.70
2019-03-24T09:27:38.041Z,98858.94
2019-03-24T09:30:12.445Z,98858.70
2019-03-24T09:32:40.744Z,98856.38
2019-03-24T09:35:09.672Z,98850.41
2019-03-24T09:37:38.453Z,98849.94
2019-03-24T09:40:09.302Z,98854.25
2019-03-24T09:42:37.610Z,98843.45
2019-03-24T09:45:06.372Z,98845.65
2019-03-24T09:47:34.632Z,98836.50
2019-03-24T09:50:03.487Z,98838.08
2019-03-24T09:52:31.802Z,98836.06
2019-03-24T09:55:00.401Z,98835.59
2019-03-24T09:57:28.805Z,98830.94
2019-03-24T09:59:57.110Z,98825.27
2019-03-24T10:02:25.436Z,98824.61
2019-03-24T10:04:54.916Z,98817.27
2019-03-24T10:07:23.608Z,98811.52
2019-03-24T10:09:51.939Z,98807.69
2019-03-24T10:12:20.249Z,98803.48
2019-03-24T10:14:48.884Z,98798.76
2019-03-24T10:17:17.452Z,98797.81
2019-03-24T10:19:46.056Z,98781.58
2019-03-24T10:22:14.642Z,98789.39
2019-03-24T10:24:42.975Z,98783.72
2019-03-24T10:27:11.374Z,98789.75
2019-03-24T10:29:39.705Z,98778.85
2019-03-24T10:32:08.020Z,98778.42
2019-03-24T10:34:36.378Z,98775.20
2019-03-24T10:37:04.761Z,98771.86
2019-03-24T10:39:33.095Z,98769.95
2019-03-24T10:42:01.630Z,98763.18
2019-03-24T10:44:29.910Z,98755.59
2019-03-24T10:46:58.237Z,98758.09
2019-03-24T10:49:26.854Z,98759.52
2019-03-24T10:51:55.267Z,98754.41
2019-03-24T10:54:23.568Z,98754.29
2019-03-24T10:56:51.934Z,98749.57
2019-03-24T10:59:20.582Z,98747.75
2019-03-24T11:01:49.263Z,98747.44
2019-03-24T11:04:17.615Z,98744.74
2019-03-24T11:06:45.986Z,98744.09
2019-03-24T11:09:14.519Z,98743.53
2019-03-24T11:11:42.857Z,98738.92
2019-03-24T11:14:11.184Z,98735.00
2019-03-24T11:16:39.491Z,98668.66
2019-03-24T11:19:08.036Z,98724.83
2019-03-24T11:21:36.344Z,98717.48
2019-03-24T11:24:05.115Z,98724.35
2019-03-24T11:26:33.445Z,98718.83
2019-03-24T11:29:01.769Z,98723.67
2019-03-24T11:31:30.230Z,98708.16
2019-03-24T11:33:58.606Z,98697.31
2019-03-24T11:36:26.969Z,98702.89
2019-03-24T11:38:55.285Z,98698.48
2019-03-24T11:41:23.627Z,98690.09
2019-03-24T11:43:51.932Z,98691.14
2019-03-24T11:46:20.314Z,98681.52
2019-03-24T11:48:48.640Z,98682.36
2019-03-24T11:51:16.957Z,98673.22
2019-03-24T11:53:45.280Z,98661.05
2019-03-24T11:56:13.593Z,98659.40
2019-03-24T11:58:42.026Z,98651.90
2019-03-24T12:01:10.308Z,98640.17
2019-03-24T12:03:38.861Z,98632.28
2019-03-24T12:06:14.337Z,98628.72
2019-03-24T12:08:38.829Z,98634.75
2019-03-24T12:11:07.220Z,98633.14
2019-03-24T12:13:35.541Z,98618.59
2019-03-24T12:16:03.927Z,98623.59
2019-03-24T12:18:32.306Z,98614.41
2019-03-24T12:21:00.636Z,98608.52
2019-03-24T12:23:29.048Z,98601.39
2019-03-24T12:25:57.452Z,98604.62
2019-03-24T12:28:25.756Z,98598.70
2019-03-24T12:30:54.066Z,98597.27
2019-03-24T12:33:22.486Z,98597.87
2019-03-24T12:35:50.792Z,98593.59
2019-03-24T12:38:19.113Z,98584.20
2019-03-24T12:40:47.416Z,98569.00
2019-03-24T12:43:19.758Z,98587.62
2019-03-24T12:45:45.795Z,98581.00
2019-03-24T12:48:14.567Z,98573.77
2019-03-24T12:50:42.942Z,98577.10
2019-03-24T12:53:11.281Z,98572.09
2019-03-24T12:55:39.590Z,98570.83
2019-03-24T12:58:07.903Z,98563.95
2019-03-24T13:00:40.260Z,98576.84
2019-03-24T13:03:09.006Z,98560.21
2019-03-24T13:05:37.471Z,98551.91
2019-03-24T13:08:11.650Z,98549.84
2019-03-24T13:10:41.464Z,98549.50
2019-03-24T13:13:10.807Z,98543.00
2019-03-24T13:15:40.714Z,98538.31
2019-03-24T13:18:09.210Z,98531.37
2019-03-24T13:20:38.731Z,98537.17
2019-03-24T13:23:07.561Z,98535.37
2019-03-24T13:25:36.409Z,98530.13
2019-03-24T13:28:05.009Z,98517.31
2019-03-24T13:30:33.372Z,98527.94
2019-03-24T13:33:01.705Z,98521.84
2019-03-24T13:35:30.329Z,98515.69
2019-03-24T13:37:58.661Z,98512.45
2019-03-24T13:40:26.979Z,98512.25
2019-03-24T13:42:55.360Z,98516.03
2019-03-24T13:45:23.787Z,98502.52
2019-03-24T13:47:52.097Z,98501.63
2019-03-24T13:50:30.691Z,98501.55
2019-03-24T13:52:50.465Z,98500.38
2019-03-24T13:55:18.868Z,98501.86
2019-03-24T13:57:47.242Z,98484.64
2019-03-24T14:00:17.822Z,98493.45
2019-03-24T14:02:46.642Z,98477.44
2019-03-24T14:05:15.137Z,98483.64
2019-03-24T14:07:43.464Z,98482.83
2019-03-24T14:10:11.910Z,98482.61
2019-03-24T14:12:40.238Z,98469.59
2019-03-24T14:15:09.206Z,98472.66
2019-03-24T14:17:38.449Z,98472.95
2019-03-24T14:20:09.063Z,98463.77
2019-03-24T14:22:37.888Z,98462.75
2019-03-24T14:25:07.333Z,98457.31
2019-03-24T14:27:36.008Z,98453.07
2019-03-24T14:30:07.554Z,98455.70
2019-03-24T14:32:35.922Z,98448.86
2019-03-24T14:35:06.246Z,98437.46
2019-03-24T14:37:34.545Z,98443.86
2019-03-24T14:40:04.116Z,98425.95
2019-03-24T14:42:32.421Z,98420.91
2019-03-24T14:45:01.102Z,98433.84
2019-03-24T14:47:29.806Z,98426.54
2019-03-24T14:49:58.174Z,98423.75
2019-03-24T14:52:26.481Z,98427.98
2019-03-24T14:54:54.885Z,98423.77
2019-03-24T14:57:23.183Z,98417.95
2019-03-24T14:59:51.624Z,98433.60
2019-03-24T15:02:20.005Z,98423.64
2019-03-24T15:04:48.352Z,98425.19
2019-03-24T15:07:16.937Z,98418.63
2019-03-24T15:09:45.255Z,98414.38
2019-03-24T15:12:13.658Z,98402.05
2019-03-24T15:14:42.131Z,98402.77
2019-03-24T15:17:10.487Z,98403.28
2019-03-24T15:19:39.163Z,98404.52
2019-03-24T15:22:07.467Z,98393.72
2019-03-24T15:24:35.796Z,98400.06
2019-03-24T15:27:04.143Z,98397.73
2019-03-24T15:29:32.453Z,98390.80
2019-03-24T15:32:00.772Z,98393.41
2019-03-24T15:34:29.460Z,98392.72
2019-03-24T15:36:57.781Z,98387.02
2019-03-24T15:39:26.408Z,98392.34
2019-03-24T15:41:54.734Z,98393.48
2019-03-24T15:44:23.109Z,98395.05
2019-03-24T15:46:51.482Z,98380.39
2019-03-24T15:49:19.881Z,98392.17
2019-03-24T15:51:48.316Z,98397.23
2019-03-24T15:54:17.122Z,98403.33
2019-03-24T15:56:45.423Z,98399.64
2019-03-24T15:59:13.853Z,98396.34
2019-03-24T16:01:42.159Z,98399.67
2019-03-24T16:04:10.467Z,98400.70
2019-03-24T16:06:38.921Z,98340.16
2019-03-24T16:09:08.186Z,98402.27
2019-03-24T16:11:36.956Z,98395.34
2019-03-24T16:14:05.263Z,98381.92
2019-03-24T16:16:33.587Z,98381.92
2019-03-24T16:19:02.109Z,98397.16
2019-03-24T16:21:31.368Z,98392.02
2019-03-24T16:24:00.801Z,98399.09
2019-03-24T16:26:29.186Z,98396.06
2019-03-24T16:28:57.512Z,98395.49
2019-03-24T16:31:25.902Z,98391.89
2019-03-24T16:33:54.223Z,98393.23
2019-03-24T16:36:22.881Z,98397.78
2019-03-24T16:38:51.576Z,98395.13
2019-03-24T16:41:20.259Z,98398.49
2019-03-24T16:43:48.661Z,98397.25
2019-03-24T16:46:17.047Z,98388.05
2019-03-24T16:48:45.430Z,98403.91
2019-03-24T16:51:13.789Z,98405.15
2019-03-24T16:53:42.205Z,98402.89
2019-03-24T16:56:10.513Z,98402.42
2019-03-24T16:58:38.939Z,98409.91
2019-03-24T17:01:07.621Z,98401.16
2019-03-24T17:03:35.928Z,98404.89
2019-03-24T17:06:04.490Z,98400.78
2019-03-24T17:08:33.177Z,98409.67
2019-03-24T17:11:01.498Z,98408.09
2019-03-24T17:13:29.808Z,98417.48
2019-03-24T17:15:58.180Z,98417.13
2019-03-24T17:18:27.115Z,98413.23
2019-03-24T17:20:55.489Z,98423.70
2019-03-24T17:23:23.895Z,98420.34
2019-03-24T17:25:52.221Z,98425.94
2019-03-24T17:28:20.546Z,98428.27
2019-03-24T17:30:48.922Z,98431.36
2019-03-24T17:33:17.269Z,98429.72
2019-03-24T17:35:45.702Z,98436.55
2019-03-24T17:38:14.004Z,98438.05
2019-03-24T17:40:42.332Z,98450.34
2019-03-24T17:43:11.745Z,98449.97
2019-03-24T17:45:40.438Z,98449.43
2019-03-24T17:48:08.758Z,98448.97
2019-03-24T17:50:37.087Z,98452.62
2019-03-24T17:53:06.891Z,98449.53
2019-03-24T17:55:35.876Z,98455.70
2019-03-24T17:58:04.801Z,98457.80
2019-03-24T18:00:45.238Z,98458.68
2019-03-24T18:03:14.280Z,98462.91
2019-03-24T18:05:42.621Z,98467.31
2019-03-24T18:08:10.966Z,98466.61
2019-03-24T18:10:39.693Z,98471.48
2019-03-24T18:13:08.409Z,98469.37
2019-03-24T18:15:36.768Z,98474.06
2019-03-24T18:18:05.643Z,98476.05
2019-03-24T18:20:36.814Z,98483.36
2019-03-24T18:23:05.168Z,98477.27
2019-03-24T18:25:33.591Z,98477.27
2019-03-24T18:28:02.021Z,98486.27
2019-03-24T18:30:30.472Z,98488.19
2019-03-24T18:32:58.820Z,98483.34
2019-03-24T18:35:27.333Z,98485.13
2019-03-24T18:37:55.711Z,98483.22
2019-03-24T18:40:24.409Z,98479.50
2019-03-24T18:42:52.990Z,98483.31
2019-03-24T18:45:21.785Z,98484.72
2019-03-24T18:47:50.259Z,98480.51
2019-03-24T18:50:18.726Z,98482.88
2019-03-24T18:52:47.051Z,98485.40
2019-03-24T18:55:15.522Z,98485.20
2019-03-24T18:57:44.293Z,98483.06
2019-03-24T19:00:14.423Z,98482.69
2019-03-24T19:02:43.040Z,98480.59
2019-03-24T19:05:11.415Z,98483.20
2019-03-24T19:07:39.964Z,98482.66
2019-03-24T19:10:10.015Z,98478.95
2019-03-24T19:12:38.347Z,98476.61
2019-03-24T19:15:09.168Z,98478.68
2019-03-24T19:17:37.621Z,98474.95
2019-03-24T19:20:08.421Z,98481.62
2019-03-24T19:22:37.153Z,98479.66
2019-03-24T19:25:09.566Z,98477.33
2019-03-24T19:27:38.310Z,98480.31
2019-03-24T19:30:12.774Z,98482.28
2019-03-24T19:32:41.347Z,98484.45
2019-03-24T19:35:09.834Z,98478.20
2019-03-24T19:37:38.368Z,98463.68
2019-03-24T19:40:26.859Z,98477.19
2019-03-24T19:42:55.338Z,98479.48
2019-03-24T19:45:24.015Z,98476.80
2019-03-24T19:47:52.646Z,98470.33
2019-03-24T19:50:21.028Z,98468.42
2019-03-24T19:52:49.599Z,98467.06
2019-03-24T19:55:18.267Z,98477.95
2019-03-24T19:57:47.461Z,98471.58
2019-03-24T20:00:16.180Z,98472.90
2019-03-24T20:02:45.069Z,98467.97
2019-03-24T20:05:13.923Z,98458.84
2019-03-24T20:07:47.919Z,98465.72
2019-03-24T20:10:12.836Z,98460.98
2019-03-24T20:12:41.331Z,98460.23
2019-03-24T20:15:09.933Z,98460.86
2019-03-24T20:17:38.314Z,98465.06
2019-03-24T20:20:06.989Z,98461.02
2019-03-24T20:22:35.667Z,98471.09
2019-03-24T20:25:06.330Z,98458.28
2019-03-24T20:27:34.672Z,98464.27
2019-03-24T20:30:04.309Z,98461.42
2019-03-24T20:32:33.337Z,98460.66
2019-03-24T20:35:02.204Z,98459.16
2019-03-24T20:37:31.875Z,98468.38
2019-03-24T20:40:00.391Z,98461.48
2019-03-24T20:42:28.963Z,98460.59
2019-03-24T20:44:57.278Z,98462.94
2019-03-24T20:47:25.593Z,98460.17
2019-03-24T20:49:54.425Z,98472.02
2019-03-24T20:52:22.768Z,98475.77
2019-03-24T20:54:51.177Z,98474.66
2019-03-24T20:57:19.764Z,98469.56
2019-03-24T20:59:48.097Z,98472.66
2019-03-24T21:02:16.485Z,98456.77
2019-03-24T21:04:44.804Z,98460.89
2019-03-24T21:07:13.306Z,98455.46
2019-03-24T21:09:41.952Z,98460.05
2019-03-24T21:12:10.299Z,98466.07
2019-03-24T21:14:38.820Z,98461.70
2019-03-24T21:17:07.171Z,98456.90
2019-03-24T21:19:35.563Z,98462.42
2019-03-24T21:22:04.409Z,98457.25
2019-03-24T21:24:32.753Z,98445.73
2019-03-24T21:27:01.065Z,98459.41
2019-03-24T21:29:29.396Z,98458.80
2019-03-24T21:31:57.710Z,98438.30
2019-03-24T21:34:26.116Z,98435.20
2019-03-24T21:36:54.503Z,98453.84
2019-03-24T21:39:22.993Z,98456.31
2019-03-24T21:41:51.408Z,98453.89
2019-03-24T21:44:19.725Z,98450.48
2019-03-24T21:46:48.082Z,98447.05
2019-03-24T21:49:16.473Z,98450.70
2019-03-24T21:51:45.297Z,98451.42
2019-03-24T21:54:13.694Z,98457.23
2019-03-24T21:56:42.374Z,98449.96
2019-03-24T21:59:10.721Z,98448.53
2019-03-24T22:01:39.116Z,98460.80
2019-03-24T22:04:07.454Z,98455.91
2019-03-24T22:06:35.842Z,98468.75
2019-03-24T22:09:06.089Z,98459.64
2019-03-24T22:11:34.415Z,98460.85
2019-03-24T22:14:02.832Z,98457.86
2019-03-24T22:16:31.170Z,98456.97
2019-03-24T22:18:59.555Z,98453.48
2019-03-24T22:21:28.229Z,98447.02
2019-03-24T22:23:56.538Z,98442.80
2019-03-24T22:26:24.881Z,98438.25
2019-03-24T22:28:53.212Z,98439.17
2019-03-24T22:31:21.549Z,98433.53
2019-03-24T22:33:50.137Z,98438.42
2019-03-24T22:36:18.452Z,98442.36
2019-03-24T22:38:46.787Z,98442.05
2019-03-24T22:41:15.190Z,98437.53
2019-03-24T22:43:43.702Z,98436.89
2019-03-24T22:46:12.016Z,98442.80
2019-03-24T22:48:40.340Z,98441.33
2019-03-24T22:51:08.725Z,98435.12
2019-03-24T22:53:37.151Z,98429.55
2019-03-24T22:56:05.545Z,98423.22
2019-03-24T22:58:33.895Z,98422.17
2019-03-24T23:01:02.953Z,98423.52
2019-03-24T23:03:31.270Z,98420.22
2019-03-24T23:05:59.914Z,98417.05
2019-03-24T23:08:28.899Z,98406.50
2019-03-24T23:10:57.443Z,98407.59
2019-03-24T23:13:26.189Z,98414.58
2019-03-24T23:15:54.525Z,98414.77
2019-03-24T23:18:22.838Z,98419.48
2019-03-24T23:20:51.257Z,98416.06
2019-03-24T23:23:19.569Z,98408.33
2019-03-24T23:25:48.041Z,98418.43
2019-03-24T23:28:16.405Z,98416.81
2019-03-24T23:30:44.803Z,98415.56
2019-03-24T23:33:13.107Z,98411.36
2019-03-24T23:35:41.538Z,98415.77
2019-03-24T23:38:09.872Z,98420.69
2019-03-24T23:40:38.254Z,98417.48
2019-03-24T23:43:07.101Z,98417.39
2019-03-24T23:45:35.481Z,98414.78
2019-03-24T23:48:04.794Z,98415.55
2019-03-24T23:50:33.102Z,98413.06
2019-03-24T23:53:01.831Z,98416.48
2019-03-24T23:55:30.233Z,98408.13
2019-03-24T23:57:58.607Z,98411.89
